Friday, June 23, 2017, 7:55 AM EDT

KPHF, Williamsburg International Airport

Location: Newport News, VA, United States Lat: 37.133
Local Time: 7:55 AM EDT (11:55 GMT) Lon: -76.5
Time Zone: US/Eastern Elev: 42 ft

Show me the last for .
Show Decoded

2017-06-23 06:54 METAR KPHF 231054Z 23007KT 10SM -RA FEW046 FEW090 OVC110 24/22 A2996 RMK AO2
                 RAB21 SLP143 P0000 T02390217 =
2017-06-23 05:54 METAR KPHF 230954Z AUTO 23010KT 10SM FEW070 OVC090 24/22 A2996 RMK AO2 SLP143
                 T02440217 =
2017-06-23 04:54 METAR KPHF 230854Z AUTO 24008KT 10SM CLR 24/22 A2996 RMK AO2 SLP144 T02440217
                 55007 =
2017-06-23 03:54 METAR KPHF 230754Z AUTO 23010KT 10SM BKN120 24/22 A2995 RMK AO2 SLP142 T02440217
                 =
2017-06-23 02:54 METAR KPHF 230654Z AUTO 23011KT 10SM CLR 25/22 A2997 RMK AO2 SLP147 T02500217 =
2017-06-23 01:54 METAR KPHF 230554Z AUTO 22008KT 10SM CLR 25/22 A2998 RMK AO2 SLP151 T02500217
                 10278 20250 58008 =
2017-06-23 00:54 METAR KPHF 230454Z AUTO 23011KT 10SM CLR 26/21 A2999 RMK AO2 SLP155 T02560211
                 403110228 =
2017-06-22 23:54 METAR KPHF 230354Z AUTO 23008KT 10SM CLR 26/22 A3001 RMK AO2 SLP160 T02610222 =
2017-06-22 22:54 METAR KPHF 230254Z 24010KT 10SM CLR 27/23 A3000 RMK AO2 SLP159 T02670233 53008 =
2017-06-22 21:54 METAR KPHF 230154Z 23008KT 10SM CLR 27/23 A2999 RMK AO2 SLP156 T02670228 =
2017-06-22 20:54 METAR KPHF 230054Z 22006KT 10SM CLR 27/23 A2998 RMK AO2 SLP152 T02720228 =
2017-06-22 19:54 METAR KPHF 222354Z 23007KT 10SM CLR 28/22 A2998 RMK AO2 SLP151 T02780217 10311
                 20278 56008 =
2017-06-22 18:54 METAR KPHF 222254Z 22010KT 10SM CLR 29/23 A2998 RMK AO2 SLP153 T02890228 =
2017-06-22 17:54 METAR KPHF 222154Z 23010KT 10SM CLR 29/22 A2999 RMK AO2 SLP155 T02890222 =
2017-06-22 16:54 METAR KPHF 222054Z 25009KT 10SM CLR 30/22 A3000 RMK AO2 SLP159 T03000222 56011 =
2017-06-22 15:54 METAR KPHF 221954Z 24008KT 10SM CLR 31/23 A3001 RMK AO2 SLP162 T03060228 =
2017-06-22 14:54 METAR KPHF 221854Z AUTO 22009KT 10SM CLR 31/23 A3002 RMK AO2 SLP165 T03110228 =
2017-06-22 13:54 METAR KPHF 221754Z 24007KT 10SM CLR 30/23 A3004 RMK AO2 SLP170 T03000228 10300
                 20239 58001 =
2017-06-22 12:54 METAR KPHF 221654Z 23008KT 10SM CLR 29/23 A3005 RMK AO2 SLP174 T02890228 =
2017-06-22 11:54 METAR KPHF 221554Z 26007KT 10SM CLR 28/23 A3004 RMK AO2 SLP173 T02830228 =
2017-06-22 10:54 METAR KPHF 221454Z 26007KT 10SM CLR 27/22 A3004 RMK AO2 SLP171 T02720222 58001 =
2017-06-22 09:54 METAR KPHF 221354Z 24009KT 10SM CLR 27/22 A3005 RMK AO2 SLP174 T02670217 =
2017-06-22 08:54 METAR KPHF 221254Z 24009KT 10SM CLR 25/22 A3005 RMK AO2 SLP175 T02500217 =

Support USWX by starting your Amazon purchase here.